Time;durP1;ratioP1;P1;durP2;ratioP2;P2;SDS_P1;SDS_P2;PMS_P1;PMS_P2;Temp;Humidity;BMP_temperature;BMP_pressure;BME280_temperature;BME280_humidity;BME280_pressure;Samples;Min_cycle;Max_cycle;Signal;HPM_P1;HPM_P2
2022/07/15 00:01:56;;;;;;;3.35;2.20;;;;;;;20.50;46.96;95014.84;4810152;29;20240;-66
2022/07/15 00:04:23;;;;;;;5.20;2.22;;;;;;;20.35;47.03;95003.66;4810027;29;20253;-65
2022/07/15 00:06:48;;;;;;;3.58;2.30;;;;;;;20.47;46.50;95007.25;4812287;29;20236;-66
2022/07/15 00:09:14;;;;;;;3.30;2.20;;;;;;;20.44;46.58;95013.03;4812882;29;20242;-65
2022/07/15 00:11:39;;;;;;;2.15;1.95;;;;;;;20.48;46.48;95008.94;4812148;29;20235;-65
2022/07/15 00:14:05;;;;;;;4.10;2.08;;;;;;;20.31;47.13;95010.44;4807530;29;20313;-65
2022/07/15 00:16:30;;;;;;;5.38;2.70;;;;;;;20.26;47.47;95009.22;4813139;29;20214;-65
2022/07/15 00:18:57;;;;;;;4.95;2.50;;;;;;;20.41;47.29;95014.28;4819585;29;20233;-65
2022/07/15 00:21:22;;;;;;;3.50;2.65;;;;;;;20.53;46.90;95016.28;4805754;29;20328;-65
2022/07/15 00:23:48;;;;;;;7.63;2.30;;;;;;;20.44;47.19;95010.38;4818699;29;20237;-65
2022/07/15 00:26:13;;;;;;;3.22;2.20;;;;;;;20.31;47.28;95015.78;4803586;29;20226;-65
2022/07/15 00:28:38;;;;;;;9.15;2.70;;;;;;;20.32;47.34;95014.75;4806114;29;20220;-65
2022/07/15 00:31:04;;;;;;;4.90;2.47;;;;;;;20.09;48.65;95024.06;4813737;29;20233;-65
2022/07/15 00:33:29;;;;;;;4.13;2.72;;;;;;;19.94;48.92;95028.81;4806397;29;20304;-65
2022/07/15 00:35:55;;;;;;;3.20;2.40;;;;;;;19.89;49.25;95021.47;4819721;29;20234;-64
2022/07/15 00:38:21;;;;;;;5.55;2.40;;;;;;;20.01;48.65;95019.78;4816368;29;20290;-64
2022/07/15 00:40:48;;;;;;;4.15;2.58;;;;;;;20.09;48.53;95021.41;4804868;29;20211;-64
2022/07/15 00:43:16;;;;;;;5.55;2.95;;;;;;;20.09;48.44;95021.41;4803486;29;20225;-64
2022/07/15 00:45:42;;;;;;;3.80;2.30;;;;;;;20.00;48.82;95010.13;4803672;29;20244;-65
2022/07/15 00:48:08;;;;;;;2.67;2.13;;;;;;;19.86;49.02;95013.88;4808096;29;20262;-65
2022/07/15 00:50:33;;;;;;;6.88;2.78;;;;;;;19.76;49.26;95010.81;4816147;29;20233;-65
2022/07/15 00:53:16;;;;;;;3.55;2.63;;;;;;;19.77;49.14;95005.28;4810020;29;20238;-64
2022/07/15 00:55:44;;;;;;;3.03;2.50;;;;;;;19.97;48.83;95009.75;4818002;29;20214;-64
2022/07/15 00:58:16;;;;;;;5.35;2.60;;;;;;;19.97;48.65;94997.22;4813334;29;20244;-64
2022/07/15 01:00:43;;;;;;;5.13;2.67;;;;;;;19.99;48.82;94992.50;4811460;29;20238;-64
2022/07/15 01:03:09;;;;;;;3.92;2.47;;;;;;;19.98;48.54;94998.03;4807853;29;20222;-64
2022/07/15 01:05:37;;;;;;;4.30;2.60;;;;;;;19.94;48.57;94994.97;4821668;29;20226;-64
2022/07/15 01:08:03;;;;;;;2.97;2.63;;;;;;;19.82;49.27;94993.97;4812306;29;20216;-65
2022/07/15 01:10:29;;;;;;;4.10;2.35;;;;;;;19.81;49.07;94992.34;4807583;29;20210;-65
2022/07/15 01:12:55;;;;;;;5.10;2.70;;;;;;;19.63;49.65;94992.16;4814468;29;20308;-65
2022/07/15 01:15:21;;;;;;;3.58;2.35;;;;;;;19.74;49.45;94992.34;4812265;29;20299;-65
2022/07/15 01:17:46;;;;;;;7.53;2.70;;;;;;;19.64;49.94;94994.59;4805634;29;20244;-63
2022/07/15 01:20:14;;;;;;;3.50;2.60;;;;;;;19.52;50.20;94996.28;4807081;29;20234;-64
2022/07/15 01:22:40;;;;;;;4.28;2.65;;;;;;;19.33;50.93;94995.28;4820123;29;20210;-64
2022/07/15 01:25:06;;;;;;;4.38;2.30;;;;;;;19.30;51.02;94985.00;4818832;29;20578;-65
2022/07/15 01:27:32;;;;;;;2.97;2.35;;;;;;;19.44;50.46;94991.97;4816853;29;20287;-65
2022/07/15 01:29:59;;;;;;;3.55;2.65;;;;;;;19.40;50.68;94982.75;4805887;29;20225;-64
2022/07/15 01:32:25;;;;;;;2.53;2.33;;;;;;;19.32;50.98;94989.09;4804960;29;20241;-64
2022/07/15 01:34:51;;;;;;;3.95;2.42;;;;;;;19.34;50.76;94980.91;4804483;29;20535;-65
2022/07/15 01:37:17;;;;;;;3.13;2.10;;;;;;;19.37;50.36;94978.63;4812165;29;20230;-64
2022/07/15 01:39:43;;;;;;;4.63;2.13;;;;;;;19.38;50.36;94977.63;4812953;29;20262;-64
2022/07/15 01:42:09;;;;;;;4.97;2.50;;;;;;;19.57;49.60;94975.13;4802561;29;20230;-64
2022/07/15 01:44:35;;;;;;;3.95;2.30;;;;;;;19.56;49.76;94970.81;4810862;29;20312;-65
2022/07/15 01:47:01;;;;;;;3.63;2.53;;;;;;;19.26;50.77;94978.47;4815514;29;20292;-65
2022/07/15 01:49:29;;;;;;;4.95;2.65;;;;;;;19.24;51.40;94991.16;4807446;29;20210;-65
2022/07/15 01:51:56;;;;;;;3.17;2.10;;;;;;;19.14;52.24;94988.94;4809225;29;20475;-64
2022/07/15 01:54:26;;;;;;;4.03;2.67;;;;;;;19.16;51.65;94985.03;4813530;29;20230;-64
2022/07/15 01:56:53;;;;;;;4.80;2.40;;;;;;;19.00;51.97;94976.63;4807778;29;20319;-64
2022/07/15 01:59:24;;;;;;;3.85;2.63;;;;;;;18.95;52.63;94985.22;4813112;29;20233;-64
2022/07/15 02:01:51;;;;;;;3.20;2.28;;;;;;;19.00;52.45;94990.75;4815234;29;20304;-64
2022/07/15 02:04:17;;;;;;;5.25;2.92;;;;;;;18.92;52.84;94994.47;4808927;29;20242;-65
2022/07/15 02:06:43;;;;;;;2.90;2.30;;;;;;;18.91;52.93;94994.66;4802537;29;20230;-65
2022/07/15 02:09:09;;;;;;;3.22;2.45;;;;;;;18.84;52.81;94991.97;4804446;29;20323;-64
2022/07/15 02:11:35;;;;;;;4.60;2.60;;;;;;;18.70;53.00;94988.44;4813270;29;20397;-65
2022/07/15 02:14:01;;;;;;;4.32;2.97;;;;;;;18.84;52.40;94991.97;4813816;29;20206;-64
2022/07/15 02:16:29;;;;;;;4.32;2.65;;;;;;;18.73;52.74;95001.34;4813215;29;20215;-65
2022/07/15 02:18:54;;;;;;;3.85;2.67;;;;;;;18.90;52.89;94999.16;4806201;29;20245;-65
2022/07/15 02:21:20;;;;;;;5.05;2.75;;;;;;;18.84;53.31;94996.47;4808530;29;20278;-64
2022/07/15 02:23:46;;;;;;;5.32;2.90;;;;;;;18.92;52.94;94988.28;4813291;29;20332;-64
2022/07/15 02:26:12;;;;;;;4.75;2.47;;;;;;;18.92;52.31;94985.63;4805700;29;20383;-65
2022/07/15 02:28:37;;;;;;;4.68;2.40;;;;;;;18.92;52.26;94998.94;4811118;29;20387;-64
2022/07/15 02:31:03;;;;;;;3.85;2.55;;;;;;;18.79;52.49;94989.13;4809065;29;20221;-64
2022/07/15 02:33:28;;;;;;;4.05;2.30;;;;;;;18.72;53.05;94998.91;4804046;29;20233;-66
2022/07/15 02:35:54;;;;;;;4.25;2.45;;;;;;;18.69;52.75;94992.13;4803103;29;20237;-65
2022/07/15 02:38:21;;;;;;;3.45;2.40;;;;;;;18.81;52.32;94995.03;4812800;29;20246;-64
2022/07/15 02:40:46;;;;;;;4.00;2.63;;;;;;;18.59;52.85;94993.56;4804525;29;20206;-65
2022/07/15 02:43:12;;;;;;;4.53;2.70;;;;;;;18.52;52.81;94993.53;4813252;29;20241;-65
2022/07/15 02:45:37;;;;;;;3.38;2.70;;;;;;;18.50;52.83;94990.25;4806147;29;20226;-65
2022/07/15 02:48:04;;;;;;;3.88;2.60;;;;;;;18.60;52.07;94988.00;4806828;29;20240;-65
2022/07/15 02:50:30;;;;;;;5.80;3.08;;;;;;;18.62;51.84;94985.16;4817634;29;20317;-64
2022/07/15 02:52:55;;;;;;;5.00;2.53;;;;;;;18.52;52.12;94990.84;4804996;29;20308;-65
2022/07/15 02:55:21;;;;;;;4.97;2.25;;;;;;;18.38;52.24;94989.19;4813221;29;20811;-65
2022/07/15 02:57:46;;;;;;;6.82;2.75;;;;;;;18.21;52.61;94975.44;4802973;29;20256;-65
2022/07/15 03:00:16;;;;;;;7.93;2.47;;;;;;;18.42;52.04;94988.59;4808301;29;20472;-65
2022/07/15 03:02:41;;;;;;;3.40;2.55;;;;;;;18.52;51.10;94985.53;4818084;29;20233;-65
2022/07/15 03:05:08;;;;;;;3.40;2.20;;;;;;;18.44;50.97;94983.91;4802303;29;20210;-66
2022/07/15 03:07:33;;;;;;;5.82;2.60;;;;;;;18.56;50.59;94983.31;4802881;29;20214;-65
2022/07/15 03:09:59;;;;;;;3.03;2.20;;;;;;;18.41;50.91;94978.97;4805147;29;20234;-66
2022/07/15 03:12:24;;;;;;;5.80;2.25;;;;;;;18.10;51.46;94984.81;4825399;29;20225;-65
2022/07/15 03:14:50;;;;;;;3.33;2.10;;;;;;;18.10;51.16;94984.00;4810476;29;20641;-65
2022/07/15 03:17:15;;;;;;;2.53;1.83;;;;;;;18.15;50.36;94986.84;4803408;29;20290;-65
2022/07/15 03:19:41;;;;;;;2.45;1.92;;;;;;;18.21;49.89;94983.41;4806431;29;20218;-65
2022/07/15 03:22:07;;;;;;;5.53;1.90;;;;;;;18.13;50.09;94983.59;4806103;29;20279;-65
2022/07/15 03:24:32;;;;;;;6.25;2.13;;;;;;;18.15;49.97;94984.19;4802344;29;20241;-65
2022/07/15 03:26:58;;;;;;;5.10;1.95;;;;;;;18.20;49.97;94981.75;4807186;29;20237;-65
2022/07/15 03:29:24;;;;;;;3.90;1.63;;;;;;;18.09;49.81;94985.81;4806060;29;20265;-65
2022/07/15 03:31:49;;;;;;;3.45;2.13;;;;;;;18.19;49.80;94977.47;4810328;29;20213;-65
2022/07/15 03:34:14;;;;;;;6.63;2.30;;;;;;;18.10;50.36;94981.34;4810955;29;20245;-65
2022/07/15 03:36:40;;;;;;;4.22;1.83;;;;;;;18.17;49.59;94979.50;4821939;29;20236;-65
2022/07/15 03:39:07;;;;;;;3.17;2.22;;;;;;;18.24;49.16;94985.69;4822190;29;20244;-65
2022/07/15 03:41:33;;;;;;;5.15;2.20;;;;;;;18.19;48.68;94980.94;4806420;29;20232;-64
2022/07/15 03:44:00;;;;;;;6.03;2.03;;;;;;;18.05;49.10;94981.94;4805179;29;20229;-64
2022/07/15 03:46:25;;;;;;;4.05;1.70;;;;;;;18.09;48.67;94983.16;4810534;29;20206;-64
2022/07/15 03:48:54;;;;;;;3.13;1.73;;;;;;;18.19;48.08;94980.13;4807719;29;20233;-65
2022/07/15 03:51:19;;;;;;;3.67;2.00;;;;;;;18.26;47.85;94979.13;4823474;29;20330;-64
2022/07/15 03:53:45;;;;;;;2.80;1.90;;;;;;;18.33;47.87;94984.47;4809111;29;20241;-65
2022/07/15 03:56:11;;;;;;;4.32;2.33;;;;;;;18.29;47.98;94976.06;4807151;29;20282;-64
2022/07/15 03:58:37;;;;;;;3.85;1.92;;;;;;;18.32;48.10;94982.84;4807442;29;21627;-64
2022/07/15 04:01:03;;;;;;;2.13;1.52;;;;;;;18.28;48.12;94989.56;4806987;29;20229;-64
2022/07/15 04:03:29;;;;;;;5.70;1.63;;;;;;;18.35;47.86;94986.94;4818872;29;20230;-64
2022/07/15 04:05:55;;;;;;;4.28;2.03;;;;;;;18.44;48.14;94991.03;4809165;29;20308;-64
2022/07/15 04:08:20;;;;;;;2.72;1.70;;;;;;;18.41;48.16;94986.13;4814615;29;20238;-65
2022/07/15 04:10:45;;;;;;;2.67;1.80;;;;;;;18.58;47.86;94989.22;4806254;29;20206;-64
2022/07/15 04:13:11;;;;;;;3.50;1.80;;;;;;;18.57;47.50;94991.06;4806240;29;20226;-64
2022/07/15 04:15:36;;;;;;;3.20;1.75;;;;;;;18.64;47.30;94993.78;4808499;29;20230;-65
2022/07/15 04:18:02;;;;;;;1.30;1.20;;;;;;;18.58;47.07;94992.75;4809591;29;20230;-64
2022/07/15 04:20:27;;;;;;;3.60;1.58;;;;;;;18.36;47.72;94993.91;4806450;29;20320;-65
2022/07/15 04:22:53;;;;;;;2.72;1.60;;;;;;;18.55;47.28;94993.16;4818198;29;20278;-64
2022/07/15 04:25:20;;;;;;;1.85;1.42;;;;;;;18.62;47.06;94991.28;4809866;29;20229;-64
2022/07/15 04:27:47;;;;;;;3.05;1.90;;;;;;;18.65;47.30;94988.22;4815795;29;20228;-64
2022/07/15 04:30:13;;;;;;;3.10;1.83;;;;;;;18.71;47.06;94984.78;4813747;29;20258;-63
2022/07/15 04:32:39;;;;;;;1.83;1.48;;;;;;;18.89;46.71;94986.03;4807026;29;20262;-65
2022/07/15 04:35:05;;;;;;;2.42;1.63;;;;;;;18.75;46.91;95001.19;4817896;29;20214;-65
2022/07/15 04:37:31;;;;;;;3.38;1.60;;;;;;;18.80;46.70;94996.06;4816861;29;20218;-65
2022/07/15 04:39:57;;;;;;;6.22;1.83;;;;;;;18.93;46.32;95005.94;4817748;29;20232;-65
2022/07/15 04:42:22;;;;;;;4.53;1.80;;;;;;;18.95;46.15;95001.19;4807627;29;20249;-64
2022/07/15 04:44:48;;;;;;;2.13;1.67;;;;;;;19.09;46.06;95000.19;4807809;29;20245;-65
2022/07/15 04:47:14;;;;;;;2.83;1.50;;;;;;;19.09;46.21;94994.88;4815813;29;20230;-65
2022/07/15 04:52:27;;;;;;;2.80;1.83;;;;;;;19.26;45.44;94987.28;4806816;29;20721;-66
2022/07/15 04:54:53;;;;;;;4.68;1.60;;;;;;;19.07;46.39;94985.44;4813992;29;20234;-66
2022/07/15 04:57:20;;;;;;;5.57;1.85;;;;;;;19.27;45.91;94985.41;4809980;29;20234;-66
2022/07/15 04:59:46;;;;;;;5.90;1.88;;;;;;;19.49;45.22;94994.03;4810386;29;20268;-66
2022/07/15 05:02:11;;;;;;;4.03;1.77;;;;;;;19.56;45.51;95000.16;4807148;29;20230;-66
2022/07/15 05:04:37;;;;;;;4.55;1.90;;;;;;;19.52;45.73;94998.94;4812955;29;20226;-66
2022/07/15 05:07:02;;;;;;;4.50;1.80;;;;;;;19.49;46.04;94996.69;4821580;29;20229;-65
2022/07/15 05:09:28;;;;;;;3.72;2.17;;;;;;;19.52;46.53;94998.94;4815145;29;20306;-66
2022/07/15 05:11:53;;;;;;;4.80;2.08;;;;;;;19.68;46.17;94992.38;4815896;29;20645;-65
2022/07/15 05:14:18;;;;;;;3.30;1.85;;;;;;;19.76;45.51;94987.63;4817069;29;20242;-65
2022/07/15 05:16:44;;;;;;;4.25;2.22;;;;;;;19.75;45.59;94995.84;4815450;29;20241;-65
2022/07/15 05:19:09;;;;;;;4.50;2.47;;;;;;;19.62;45.97;94994.00;4811124;29;20261;-65
2022/07/15 05:21:35;;;;;;;4.43;2.50;;;;;;;19.88;45.34;94997.66;4806176;29;20230;-65
2022/07/15 05:24:01;;;;;;;5.32;2.30;;;;;;;19.93;45.74;94995.19;4801292;29;20241;-66
2022/07/15 05:26:26;;;;;;;5.40;2.60;;;;;;;20.02;45.10;94994.75;4802986;29;20352;-66
2022/07/15 05:28:52;;;;;;;4.32;2.85;;;;;;;20.04;44.72;94997.19;4812531;29;20277;-66
2022/07/15 05:31:17;;;;;;;3.53;2.25;;;;;;;20.10;44.78;94990.19;4814141;29;20217;-66
2022/07/15 05:33:43;;;;;;;8.52;2.72;;;;;;;19.77;45.90;94993.78;4810515;29;20234;-65
2022/07/15 05:36:15;;;;;;;8.32;2.42;;;;;;;20.13;45.17;94995.94;4806880;29;20238;-67
2022/07/15 05:38:42;;;;;;;4.95;2.65;;;;;;;20.23;44.81;94992.78;4807505;29;20328;-65
2022/07/15 05:41:08;;;;;;;5.05;2.92;;;;;;;20.27;44.79;94984.16;4812465;29;20225;-66
2022/07/15 05:43:34;;;;;;;3.88;2.40;;;;;;;20.31;44.73;94991.75;4802449;29;20233;-66
2022/07/15 05:46:01;;;;;;;5.00;2.80;;;;;;;20.22;44.48;94988.50;4804487;29;20296;-66
2022/07/15 05:48:26;;;;;;;4.30;2.67;;;;;;;20.35;44.40;94987.63;4804620;29;20234;-65
2022/07/15 05:50:52;;;;;;;4.00;2.60;;;;;;;20.44;44.04;94994.34;4812473;29;20229;-65
2022/07/15 05:53:17;;;;;;;4.50;2.30;;;;;;;20.56;43.53;94994.53;4801239;29;20230;-65
2022/07/15 05:55:43;;;;;;;6.40;2.47;;;;;;;20.66;44.19;94994.88;4811857;29;20222;-65
2022/07/15 05:58:09;;;;;;;6.25;2.95;;;;;;;20.67;44.18;94999.19;4804072;29;20262;-65
2022/07/15 06:00:36;;;;;;;6.95;2.92;;;;;;;20.61;44.39;94997.34;4804902;29;20237;-69
2022/07/15 06:03:03;;;;;;;3.42;3.08;;;;;;;20.58;44.63;94993.28;4807656;29;20313;-66
2022/07/15 06:05:28;;;;;;;4.55;2.88;;;;;;;20.66;44.39;94987.69;4802879;29;20257;-66
2022/07/15 06:07:54;;;;;;;4.80;2.55;;;;;;;20.74;44.66;94988.44;4822845;29;20202;-66
2022/07/15 06:10:20;;;;;;;2.78;2.40;;;;;;;20.76;44.44;94987.19;4809083;29;20198;-66
2022/07/15 06:12:46;;;;;;;7.28;2.40;;;;;;;20.66;44.36;94984.19;4807464;29;20293;-66
2022/07/15 06:15:11;;;;;;;5.78;2.25;;;;;;;20.79;43.77;94997.44;4803642;29;20226;-66
2022/07/15 06:17:37;;;;;;;4.95;2.25;;;;;;;20.60;44.22;94996.53;4812603;29;20233;-65
2022/07/15 06:20:05;;;;;;;3.15;2.08;;;;;;;20.79;43.70;94993.97;4800432;29;20241;-66
2022/07/15 06:22:30;;;;;;;2.35;2.10;;;;;;;20.77;43.05;94994.19;4821879;29;20217;-66
2022/07/15 06:24:56;;;;;;;7.40;2.40;;;;;;;20.86;42.86;94992.06;4806410;29;20230;-66
2022/07/15 06:27:21;;;;;;;3.58;2.17;;;;;;;20.97;43.06;94994.06;4806118;29;20225;-65
2022/07/15 06:29:48;;;;;;;2.80;2.50;;;;;;;21.08;42.76;94995.19;4806924;29;20244;-65
2022/07/15 06:32:14;;;;;;;2.65;2.00;;;;;;;21.17;42.39;94991.25;4819268;29;20233;-65
2022/07/15 06:34:39;;;;;;;4.50;2.00;;;;;;;21.26;42.25;94994.44;4807285;29;20216;-65
2022/07/15 06:37:05;;;;;;;5.80;3.28;;;;;;;21.25;41.88;94998.16;4807547;29;20246;-66
2022/07/15 06:39:31;;;;;;;3.72;2.47;;;;;;;21.39;42.04;94996.22;4807885;29;20267;-65
2022/07/15 06:41:56;;;;;;;2.95;2.38;;;;;;;21.35;42.60;94988.59;4815087;29;20229;-65
2022/07/15 06:44:22;;;;;;;10.57;2.50;;;;;;;21.46;42.74;94991.63;4807837;29;20565;-65
2022/07/15 06:46:48;;;;;;;3.25;2.22;;;;;;;21.44;42.40;94994.53;4805105;29;20206;-66
2022/07/15 06:49:14;;;;;;;6.20;3.05;;;;;;;21.45;41.83;94988.13;4812787;29;20225;-65
2022/07/15 06:51:39;;;;;;;4.30;2.15;;;;;;;21.57;41.55;94986.38;4808141;29;20234;-66
2022/07/15 06:54:06;;;;;;;4.03;2.25;;;;;;;21.61;41.85;94980.59;4805742;29;20329;-65
2022/07/15 06:56:31;;;;;;;4.13;2.20;;;;;;;21.61;41.58;94980.59;4806661;29;20244;-64
2022/07/15 06:58:57;;;;;;;5.95;2.20;;;;;;;21.67;41.67;94972.47;4810396;29;20225;-65
2022/07/15 07:01:23;;;;;;;2.80;2.50;;;;;;;21.74;41.87;94978.59;4814039;29;20202;-65
2022/07/15 07:03:48;;;;;;;4.15;2.40;;;;;;;21.83;42.25;94979.09;4807222;29;20496;-64
2022/07/15 07:06:13;;;;;;;3.75;2.30;;;;;;;21.78;42.22;94977.13;4805949;29;20233;-65
2022/07/15 07:08:39;;;;;;;5.68;2.50;;;;;;;21.96;41.46;94980.81;4808307;29;20279;-64
2022/07/15 07:11:04;;;;;;;4.40;2.80;;;;;;;21.87;41.45;94974.97;4804326;29;20214;-65
2022/07/15 07:13:30;;;;;;;6.05;2.60;;;;;;;21.97;41.69;94982.44;4803703;29;20210;-65
2022/07/15 07:15:55;;;;;;;6.75;2.72;;;;;;;22.10;41.46;94970.78;4803585;29;20233;-64
2022/07/15 07:18:21;;;;;;;7.30;2.63;;;;;;;22.08;41.54;94972.84;4814282;29;20234;-66
2022/07/15 07:20:46;;;;;;;4.05;2.40;;;;;;;22.08;41.53;94973.69;4818995;29;20236;-64
2022/07/15 07:23:12;;;;;;;3.95;2.75;;;;;;;22.11;41.74;94975.09;4802947;29;20268;-65
2022/07/15 07:25:37;;;;;;;5.05;2.35;;;;;;;22.22;41.74;94971.69;4809380;29;20222;-65
2022/07/15 07:28:03;;;;;;;4.97;2.60;;;;;;;22.26;41.69;94967.50;4802822;29;20222;-64
2022/07/15 07:30:32;;;;;;;3.80;2.60;;;;;;;22.35;41.54;94968.03;4807070;29;20248;-64
2022/07/15 07:32:57;;;;;;;6.55;2.90;;;;;;;22.40;41.63;94962.78;4805982;29;20233;-65
2022/07/15 07:35:23;;;;;;;5.95;2.88;;;;;;;22.43;41.87;94962.34;4811155;29;20226;-64
2022/07/15 07:37:49;;;;;;;8.27;3.72;;;;;;;22.60;41.69;94970.56;4810687;29;20217;-65
2022/07/15 07:40:16;;;;;;;3.70;2.63;;;;;;;22.59;40.77;94961.72;4805092;29;20247;-65
2022/07/15 07:42:43;;;;;;;5.90;2.53;;;;;;;22.52;41.59;94969.03;4804650;29;20604;-64
2022/07/15 07:45:10;;;;;;;6.38;2.95;;;;;;;22.64;41.61;94967.22;4808353;29;20223;-65
2022/07/15 07:47:45;;;;;;;4.85;2.83;;;;;;;22.70;41.88;94968.16;4803188;29;20248;-65
2022/07/15 07:50:10;;;;;;;5.20;2.70;;;;;;;22.71;41.11;94964.44;4812684;29;20290;-65
2022/07/15 07:52:36;;;;;;;3.03;2.53;;;;;;;22.81;40.45;94974.59;4810505;29;20218;-65
2022/07/15 07:55:03;;;;;;;4.45;2.60;;;;;;;22.86;40.23;94970.19;4810741;29;20230;-64
2022/07/15 07:57:29;;;;;;;3.40;2.63;;;;;;;22.84;40.45;94972.28;4805317;29;20325;-64
2022/07/15 07:59:54;;;;;;;5.30;3.05;;;;;;;22.94;40.64;94970.91;4811346;29;20329;-65
2022/07/15 08:02:20;;;;;;;6.20;2.90;;;;;;;23.00;39.91;94968.16;4810926;29;20234;-65
2022/07/15 08:04:45;;;;;;;8.40;3.67;;;;;;;23.07;39.56;94960.00;4810981;29;20274;-65
2022/07/15 08:07:11;;;;;;;4.93;2.63;;;;;;;23.16;39.35;94957.81;4808642;29;20237;-64
2022/07/15 08:09:37;;;;;;;5.45;3.20;;;;;;;23.23;38.83;94959.31;4803079;29;20242;-64
2022/07/15 08:12:02;;;;;;;6.30;2.65;;;;;;;23.30;38.33;94968.06;4811339;29;20249;-65
2022/07/15 08:14:28;;;;;;;7.75;3.15;;;;;;;23.31;38.03;94963.53;4804644;29;20297;-64
2022/07/15 08:16:54;;;;;;;5.30;2.72;;;;;;;23.30;38.43;94954.66;4808127;29;20217;-66
2022/07/15 08:19:20;;;;;;;8.10;3.30;;;;;;;23.38;37.77;94958.03;4814880;29;20224;-65
2022/07/15 08:21:46;;;;;;;6.68;2.75;;;;;;;23.49;37.78;94959.91;4806418;29;20234;-64
2022/07/15 08:24:12;;;;;;;5.72;3.35;;;;;;;23.39;37.21;94951.63;4806057;29;20236;-66
2022/07/15 08:26:38;;;;;;;5.53;2.60;;;;;;;23.45;36.94;94948.84;4806622;29;20238;-65
2022/07/15 08:29:05;;;;;;;4.40;3.60;;;;;;;23.56;37.00;94945.31;4811099;29;20213;-65
2022/07/15 08:31:32;;;;;;;8.07;4.70;;;;;;;23.62;36.82;94948.13;4810016;29;20208;-65
2022/07/15 08:33:57;;;;;;;5.03;2.83;;;;;;;23.80;35.75;94956.06;4807705;29;20253;-65
2022/07/15 08:36:22;;;;;;;5.50;3.03;;;;;;;23.80;35.90;94955.25;4804883;29;20226;-65
2022/07/15 08:38:48;;;;;;;4.65;2.70;;;;;;;23.82;35.92;94953.97;4808862;29;20258;-64
2022/07/15 08:41:15;;;;;;;4.47;2.90;;;;;;;23.91;36.31;94946.38;4806337;29;20243;-66
2022/07/15 08:43:41;;;;;;;5.93;2.88;;;;;;;23.93;36.00;94944.25;4811318;29;20214;-64
2022/07/15 08:46:07;;;;;;;7.28;3.08;;;;;;;24.10;36.15;94942.47;4826060;29;20241;-64
2022/07/15 08:48:36;;;;;;;6.65;3.38;;;;;;;24.09;35.16;94948.09;4810605;29;20228;-64
2022/07/15 08:51:04;;;;;;;6.93;2.83;;;;;;;24.10;34.86;94936.28;4820950;29;20257;-65
2022/07/15 08:53:30;;;;;;;5.63;2.60;;;;;;;24.23;35.23;94938.69;4808232;29;20238;-66
2022/07/15 08:55:57;;;;;;;4.82;2.97;;;;;;;24.25;35.20;94936.59;4805789;29;20210;-62
2022/07/15 08:58:23;;;;;;;6.10;3.10;;;;;;;24.31;35.81;94937.50;4810019;29;20283;-63
2022/07/15 09:00:49;;;;;;;218.95;19.55;;;;;;;24.35;34.60;94934.09;4813001;29;20226;-63
2022/07/15 09:03:15;;;;;;;14.00;3.45;;;;;;;24.41;34.57;94929.63;4813937;29;20627;-62
2022/07/15 09:05:40;;;;;;;6.72;2.80;;;;;;;24.51;34.57;94937.91;4803910;29;20313;-63
2022/07/15 09:08:14;;;;;;;5.75;2.50;;;;;;;24.53;32.58;94934.97;4809342;29;20221;-64
2022/07/15 09:10:50;;;;;;;5.03;2.67;;;;;;;24.52;32.90;94934.16;4805804;29;20237;-64
2022/07/15 09:13:30;;;;;;;9.73;2.90;;;;;;;24.59;33.44;94937.53;4803121;29;20260;-64
2022/07/15 09:15:57;;;;;;;6.18;2.95;;;;;;;24.62;33.48;94933.53;4802545;29;20226;-63
2022/07/15 09:18:26;;;;;;;4.13;2.38;;;;;;;24.71;33.16;94928.59;4803851;29;20252;-66
2022/07/15 09:20:52;;;;;;;6.15;2.58;;;;;;;24.82;33.81;94930.38;4807374;29;20245;-63
2022/07/15 09:23:24;;;;;;;3.45;2.53;;;;;;;24.83;33.22;94927.47;4820622;29;20307;-63
2022/07/15 09:25:50;;;;;;;4.00;2.28;;;;;;;24.86;31.76;94923.47;4804787;29;20206;-64
2022/07/15 09:28:16;;;;;;;5.90;2.30;;;;;;;24.93;32.84;94916.03;4821022;29;20238;-65
2022/07/15 09:36:25;;;;;;;4.07;2.08;;;;;;;25.36;32.46;94922.66;4807129;29;20238;-65
2022/07/15 09:38:58;;;;;;;6.25;2.10;;;;;;;25.46;33.23;94924.69;4804571;29;20269;-64
2022/07/15 09:41:26;;;;;;;5.10;2.00;;;;;;;25.54;31.48;94916.22;4803905;29;20248;-65
2022/07/15 09:43:56;;;;;;;2.53;1.50;;;;;;;25.59;30.04;94912.78;4802198;29;20221;-64
2022/07/15 09:46:24;;;;;;;2.45;1.70;;;;;;;25.69;30.50;94910.22;4801578;29;20210;-64
2022/07/15 09:48:52;;;;;;;3.15;2.38;;;;;;;25.90;31.52;94914.00;4807423;29;20231;-63
2022/07/15 09:51:18;;;;;;;2.75;1.88;;;;;;;26.01;30.66;94917.66;4803643;29;20235;-65
2022/07/15 09:53:44;;;;;;;4.32;1.85;;;;;;;26.03;30.61;94912.81;4807560;29;20241;-65
2022/07/15 09:56:16;;;;;;;4.43;2.13;;;;;;;26.08;29.99;94912.88;4806878;29;20210;-65
2022/07/15 09:58:43;;;;;;;4.38;1.77;;;;;;;26.16;29.44;94905.16;4808538;29;20316;-65
2022/07/15 10:01:10;;;;;;;3.95;1.80;;;;;;;26.31;30.50;94909.13;4808757;29;20240;-64
2022/07/15 10:03:37;;;;;;;3.50;1.90;;;;;;;26.51;31.13;94900.44;4803628;29;21006;-65
2022/07/15 10:06:03;;;;;;;7.22;2.10;;;;;;;26.65;31.40;94909.78;4804639;29;20324;-65
2022/07/15 10:08:31;;;;;;;3.70;2.15;;;;;;;26.77;30.98;94907.72;4806500;29;20249;-65
2022/07/15 10:10:57;;;;;;;7.68;2.25;;;;;;;26.90;31.60;94905.69;4816619;29;20217;-65
2022/07/15 10:13:23;;;;;;;3.70;2.30;;;;;;;27.01;30.42;94905.50;4810434;29;20221;-65
2022/07/15 10:15:57;;;;;;;2.53;1.85;;;;;;;27.16;30.33;94906.69;4807223;29;20252;-64
2022/07/15 10:18:45;;;;;;;4.30;1.83;;;;;;;27.30;29.96;94910.63;4803658;29;20241;-65
2022/07/15 10:21:26;;;;;;;3.83;1.83;;;;;;;27.34;27.68;94905.50;4806216;29;20340;-65
2022/07/15 10:23:54;;;;;;;3.60;2.00;;;;;;;27.38;28.09;94901.22;4802789;29;20635;-64
2022/07/15 10:26:39;;;;;;;3.30;1.65;;;;;;;27.31;27.30;94908.72;4809443;29;20230;-65
2022/07/15 10:29:07;;;;;;;3.55;1.58;;;;;;;27.14;27.06;94898.88;4804087;29;20222;-65
2022/07/15 10:31:34;;;;;;;1.95;1.60;;;;;;;27.31;27.07;94900.63;4802545;29;20296;-64
2022/07/15 10:34:03;;;;;;;2.30;2.00;;;;;;;27.44;26.91;94897.47;4808828;29;20233;-64
2022/07/15 10:36:53;;;;;;;3.35;1.83;;;;;;;27.63;27.69;94895.97;4803471;29;20238;-64
2022/07/15 10:39:20;;;;;;;3.65;2.17;;;;;;;27.82;26.99;94890.16;4808875;29;20245;-64
2022/07/15 10:41:49;;;;;;;5.07;2.17;;;;;;;28.06;27.42;94883.22;4820202;29;20306;-65
2022/07/15 10:44:14;;;;;;;2.80;1.65;;;;;;;28.09;26.51;94885.44;4806558;29;20237;-64
2022/07/15 10:46:40;;;;;;;4.22;2.15;;;;;;;28.01;26.56;94885.09;4808514;29;20221;-65
2022/07/15 10:49:05;;;;;;;2.25;1.75;;;;;;;28.12;26.70;94879.47;4810467;29;20213;-64
2022/07/15 10:51:36;;;;;;;2.30;1.65;;;;;;;28.22;25.54;94873.28;4803556;29;20241;-64
2022/07/15 10:54:02;;;;;;;2.70;2.00;;;;;;;28.24;25.91;94881.13;4803795;29;20717;-64
2022/07/15 10:56:36;;;;;;;3.10;1.75;;;;;;;28.38;25.74;94874.13;4804793;29;20241;-64
2022/07/15 10:59:16;;;;;;;3.25;1.92;;;;;;;28.42;25.35;94877.94;4803395;29;20236;-64
2022/07/15 11:01:45;;;;;;;3.33;1.60;;;;;;;28.40;25.16;94871.97;4803903;29;20242;-65
2022/07/15 11:04:19;;;;;;;1.95;1.75;;;;;;;28.43;24.73;94870.63;4806440;29;20319;-65
2022/07/15 11:07:12;;;;;;;2.70;2.13;;;;;;;28.46;25.57;94868.22;4808892;29;20284;-65
2022/07/15 11:10:01;;;;;;;3.88;2.22;;;;;;;28.65;24.44;94871.22;4801277;29;20250;-65
2022/07/15 11:12:29;;;;;;;2.20;2.00;;;;;;;28.77;24.28;94868.28;4805455;29;20304;-65
2022/07/15 11:14:55;;;;;;;3.33;1.70;;;;;;;28.83;25.25;94866.38;4810500;29;21370;-65
2022/07/15 11:17:28;;;;;;;2.05;1.75;;;;;;;28.99;24.88;94866.13;4820366;29;20234;-66
2022/07/15 11:19:56;;;;;;;2.40;2.00;;;;;;;29.07;25.01;94861.28;4800129;29;20300;-65
2022/07/15 11:22:24;;;;;;;2.10;1.50;;;;;;;29.17;24.22;94851.25;4806010;29;20305;-65
2022/07/15 11:24:50;;;;;;;2.88;1.70;;;;;;;29.27;25.03;94865.84;4798200;29;20286;-66
2022/07/15 11:27:15;;;;;;;2.47;2.28;;;;;;;29.49;23.46;94852.81;4797876;29;20229;-64
2022/07/15 11:29:51;;;;;;;4.20;1.92;;;;;;;29.60;22.41;94856.31;4799081;29;20230;-66
2022/07/15 11:32:20;;;;;;;3.95;1.90;;;;;;;29.68;23.25;94851.16;4804240;29;20552;-66
2022/07/15 11:34:52;;;;;;;3.17;1.92;;;;;;;29.73;23.15;94850.34;4802533;29;20222;-66
2022/07/15 11:37:23;;;;;;;3.78;2.20;;;;;;;29.96;23.24;94850.78;4805576;29;20226;-65
2022/07/15 11:39:50;;;;;;;3.53;2.15;;;;;;;30.09;22.77;94847.47;4803600;29;20237;-66
2022/07/15 11:45:08;;;;;;;2.75;2.45;;;;;;;30.33;22.72;94847.66;4803466;29;20299;-65